Time;durP1;ratioP1;P1;durP2;ratioP2;P2;SDS_P1;SDS_P2;PMS_P1;PMS_P2;Temp;Humidity;BMP_temperature;BMP_pressure;BME280_temperature;BME280_humidity;BME280_pressure;Samples;Min_cycle;Max_cycle;Signal;HPM_P1;HPM_P2
2023/06/10 00:01:59;;;;;;;3.00;2.40;;;;;;;20.73;39.86;101471.47;4886945;28;106774;-49
2023/06/10 00:04:26;;;;;;;2.27;1.97;;;;;;;20.73;39.94;101465.13;4888414;28;97024;-49
2023/06/10 00:06:51;;;;;;;1.57;1.47;;;;;;;20.67;39.91;101458.91;4889272;28;97150;-48
2023/06/10 00:09:18;;;;;;;1.77;1.63;;;;;;;20.65;40.04;101464.28;4891344;28;97722;-49
2023/06/10 00:11:44;;;;;;;2.37;2.00;;;;;;;20.60;40.29;101465.91;4889390;28;97228;-48
2023/06/10 00:14:09;;;;;;;2.80;1.77;;;;;;;20.50;40.42;101470.47;4891258;28;97051;-49
2023/06/10 00:16:35;;;;;;;3.67;2.20;;;;;;;20.50;40.39;101462.09;4889792;28;96988;-49
2023/06/10 00:19:03;;;;;;;5.83;1.70;;;;;;;20.47;40.45;101465.19;4887094;28;98044;-49
2023/06/10 00:21:37;;;;;;;2.67;2.07;;;;;;;20.41;40.65;101472.97;4891765;28;97578;-50
2023/06/10 00:24:05;;;;;;;3.90;2.30;;;;;;;20.33;40.70;101463.75;4890816;28;96742;-50
2023/06/10 00:26:31;;;;;;;4.27;2.03;;;;;;;20.31;40.90;101469.88;4891702;28;96943;-47
2023/06/10 00:28:56;;;;;;;3.40;1.83;;;;;;;20.29;41.00;101469.66;4892171;28;96879;-49
2023/06/10 00:31:21;;;;;;;2.63;2.13;;;;;;;20.28;41.08;101473.75;4890584;28;99624;-49
2023/06/10 00:33:46;;;;;;;3.77;2.30;;;;;;;20.25;40.97;101476.88;4892179;28;102060;-49
2023/06/10 00:36:12;;;;;;;4.17;2.10;;;;;;;20.22;41.21;101475.16;4895323;28;96830;-48
2023/06/10 00:38:37;;;;;;;3.67;2.17;;;;;;;20.17;41.07;101476.75;4895199;28;97242;-50
2023/06/10 00:41:02;;;;;;;2.77;2.13;;;;;;;20.11;41.36;101474.09;4892034;28;96793;-49
2023/06/10 00:43:28;;;;;;;1.83;1.73;;;;;;;20.08;41.44;101482.78;4892200;28;97125;-49
2023/06/10 00:45:53;;;;;;;3.57;1.90;;;;;;;20.06;41.58;101485.34;4893313;28;97343;-49
2023/06/10 00:48:19;;;;;;;1.93;1.83;;;;;;;20.04;41.49;101476.75;4892763;28;97156;-49
2023/06/10 00:50:46;;;;;;;2.90;1.73;;;;;;;20.00;41.63;101482.69;4891965;28;97382;-48
2023/06/10 00:53:12;;;;;;;4.27;2.27;;;;;;;19.99;41.73;101475.59;4890123;28;96958;-49
2023/06/10 00:55:37;;;;;;;2.50;2.30;;;;;;;19.99;41.86;101483.97;4890501;28;97028;-49
2023/06/10 00:58:03;;;;;;;4.60;2.20;;;;;;;20.00;41.95;101476.34;4896684;28;97719;-48
2023/06/10 01:00:29;;;;;;;2.17;1.73;;;;;;;19.99;41.99;101481.16;4890246;28;96845;-49
2023/06/10 01:02:55;;;;;;;1.77;1.67;;;;;;;19.99;41.99;101494.38;4890603;28;97177;-49
2023/06/10 01:05:21;;;;;;;2.00;1.67;;;;;;;20.01;42.07;101486.22;4893353;28;97425;-49
2023/06/10 01:08:08;;;;;;;6.30;2.37;;;;;;;19.98;43.03;101495.69;4894598;28;97409;-49
2023/06/10 01:10:40;;;;;;;3.30;2.00;;;;;;;19.95;42.63;101496.75;4892351;28;97095;-49
2023/06/10 01:13:11;;;;;;;1.80;1.70;;;;;;;19.91;42.37;101491.50;4892190;28;97138;-49
2023/06/10 01:15:37;;;;;;;3.37;2.13;;;;;;;19.88;42.48;101491.78;4889619;28;98076;-48
2023/06/10 01:18:14;;;;;;;2.20;2.00;;;;;;;19.84;43.11;101496.97;4891791;28;97693;-50
2023/06/10 01:20:42;;;;;;;2.27;2.10;;;;;;;19.76;42.66;101499.66;4890887;28;97352;-48
2023/06/10 01:23:09;;;;;;;3.37;2.40;;;;;;;19.74;42.48;101509.84;4892673;28;97324;-50
2023/06/10 01:25:42;;;;;;;1.80;1.67;;;;;;;19.72;42.89;101490.09;4889775;28;97045;-48
2023/06/10 01:28:33;;;;;;;2.63;1.83;;;;;;;19.59;43.82;101487.28;4892269;28;97848;-49
2023/06/10 01:31:36;;;;;;;3.83;2.20;;;;;;;19.44;44.11;101496.91;4889245;28;97305;-49
2023/06/10 01:34:07;;;;;;;2.43;1.90;;;;;;;19.35;43.26;101502.16;4890570;28;97288;-52
2023/06/10 01:36:34;;;;;;;2.20;2.00;;;;;;;19.31;43.40;101507.25;4892573;28;97198;-49
2023/06/10 01:39:02;;;;;;;2.20;2.00;;;;;;;19.23;43.44;101509.94;4892843;28;98639;-50
2023/06/10 01:41:28;;;;;;;3.27;1.90;;;;;;;19.23;43.68;101512.72;4891682;28;97068;-49
2023/06/10 01:43:54;;;;;;;2.53;1.83;;;;;;;19.18;43.65;101518.38;4890941;28;97067;-50
2023/06/10 01:46:21;;;;;;;2.50;1.73;;;;;;;19.15;43.75;101534.16;4892525;28;96855;-48
2023/06/10 01:48:46;;;;;;;4.77;2.20;;;;;;;19.13;43.80;101511.59;4889690;28;97356;-50
2023/06/10 01:51:12;;;;;;;2.83;1.70;;;;;;;19.13;44.07;101514.41;4891499;28;97097;-49
2023/06/10 01:53:37;;;;;;;2.83;2.00;;;;;;;19.07;44.32;101513.72;4892270;28;96779;-48
2023/06/10 01:56:03;;;;;;;3.30;2.40;;;;;;;19.04;44.21;101517.59;4891848;28;96878;-49
2023/06/10 01:58:28;;;;;;;1.73;1.63;;;;;;;19.04;44.26;101514.81;4892823;28;97956;-47
2023/06/10 02:00:53;;;;;;;3.10;2.33;;;;;;;19.01;44.42;101515.09;4890297;28;96875;-49
2023/06/10 02:03:18;;;;;;;2.27;2.07;;;;;;;18.96;44.36;101516.69;4891637;28;96912;-49
2023/06/10 02:05:44;;;;;;;3.70;2.27;;;;;;;18.94;44.42;101513.69;4892749;28;96641;-49
2023/06/10 02:08:09;;;;;;;3.20;2.10;;;;;;;18.83;44.27;101519.41;4891439;28;105301;-49
2023/06/10 02:10:34;;;;;;;2.20;1.97;;;;;;;18.74;44.80;101519.06;4891406;28;96626;-49
2023/06/10 02:13:00;;;;;;;1.83;1.63;;;;;;;18.67;44.72;101520.44;4890482;28;96991;-49
2023/06/10 02:15:25;;;;;;;2.33;2.13;;;;;;;18.62;44.93;101518.47;4891965;28;96802;-49
2023/06/10 02:17:51;;;;;;;2.57;1.90;;;;;;;18.59;45.09;101528.63;4891735;28;97458;-49
2023/06/10 02:20:16;;;;;;;2.93;2.60;;;;;;;18.57;45.31;101527.63;4889605;28;96672;-49
2023/06/10 02:22:42;;;;;;;8.43;2.40;;;;;;;18.56;45.17;101518.53;4889435;28;102237;-49
2023/06/10 02:25:08;;;;;;;3.83;2.03;;;;;;;18.52;45.23;101522.91;4890628;28;97113;-49
2023/06/10 02:27:34;;;;;;;2.40;2.20;;;;;;;18.42;45.23;101528.06;4890799;28;98512;-49
2023/06/10 02:30:00;;;;;;;4.73;2.30;;;;;;;18.32;45.36;101523.38;4890321;28;97298;-48
2023/06/10 02:32:25;;;;;;;4.17;2.23;;;;;;;18.22;45.59;101539.69;4892873;28;96780;-50
2023/06/10 02:34:51;;;;;;;3.17;1.60;;;;;;;18.16;45.81;101544.59;4892446;28;97219;-49
2023/06/10 02:37:16;;;;;;;2.97;2.60;;;;;;;18.12;45.94;101549.69;4892001;28;97433;-49
2023/06/10 02:39:42;;;;;;;3.20;2.50;;;;;;;18.14;45.93;101549.16;4888231;28;97159;-48
2023/06/10 02:42:07;;;;;;;2.37;2.17;;;;;;;18.12;45.86;101548.94;4892270;28;101917;-48
2023/06/10 02:44:33;;;;;;;2.23;1.70;;;;;;;18.03;46.05;101549.28;4890608;28;96761;-49
2023/06/10 02:46:58;;;;;;;2.40;2.20;;;;;;;17.94;46.13;101553.94;4890251;28;97210;-48
2023/06/10 02:49:23;;;;;;;2.40;2.20;;;;;;;17.88;46.24;101558.81;4892272;28;96960;-49
2023/06/10 02:51:53;;;;;;;2.60;2.40;;;;;;;17.87;46.41;101556.53;4890278;28;97280;-49
2023/06/10 02:54:19;;;;;;;2.17;1.83;;;;;;;17.87;46.35;101559.31;4889601;28;97112;-49
2023/06/10 02:56:45;;;;;;;2.87;2.57;;;;;;;17.77;46.58;101556.13;4890225;28;98622;-48
2023/06/10 02:59:11;;;;;;;2.20;2.00;;;;;;;17.70;46.67;101565.03;4891229;28;96889;-49
2023/06/10 03:01:36;;;;;;;2.30;2.20;;;;;;;17.66;46.75;101561.81;4892011;28;97308;-48
2023/06/10 03:04:04;;;;;;;4.77;2.40;;;;;;;17.62;46.76;101577.28;4892536;28;97737;-47
2023/06/10 03:06:29;;;;;;;2.40;2.10;;;;;;;17.54;46.98;101565.94;4891590;28;97414;-50
2023/06/10 03:08:54;;;;;;;1.70;1.60;;;;;;;17.52;46.88;101562.16;4891403;28;96737;-48
2023/06/10 03:11:20;;;;;;;5.13;2.30;;;;;;;17.46;47.08;101559.41;4891026;28;96842;-49
2023/06/10 03:13:45;;;;;;;2.13;2.03;;;;;;;17.44;47.21;101556.38;4889296;28;97584;-49
2023/06/10 03:16:12;;;;;;;5.00;2.50;;;;;;;17.43;47.17;101566.00;4891958;28;97473;-48
2023/06/10 03:18:37;;;;;;;2.73;1.80;;;;;;;17.40;47.25;101567.03;4890945;28;97054;-49
2023/06/10 03:21:03;;;;;;;2.43;2.10;;;;;;;17.37;47.28;101572.88;4889251;28;96923;-48
2023/06/10 03:23:28;;;;;;;6.03;2.57;;;;;;;17.34;47.39;101569.13;4891976;28;97047;-48
2023/06/10 03:25:54;;;;;;;7.00;2.77;;;;;;;17.34;47.58;101577.47;4891835;28;97389;-48
2023/06/10 03:28:20;;;;;;;2.77;2.23;;;;;;;17.34;47.60;101579.50;4888784;28;97628;-49
2023/06/10 03:30:46;;;;;;;4.30;2.20;;;;;;;17.31;47.78;101572.94;4890386;28;97067;-49
2023/06/10 03:33:12;;;;;;;4.40;2.00;;;;;;;17.37;47.92;101586.78;4890665;28;96879;-49
2023/06/10 03:35:37;;;;;;;2.57;2.37;;;;;;;17.39;47.95;101581.47;4888366;28;97752;-49
2023/06/10 03:38:02;;;;;;;4.87;2.40;;;;;;;17.41;48.24;101578.94;4888610;28;97125;-49
2023/06/10 03:40:30;;;;;;;3.67;2.40;;;;;;;17.44;48.20;101591.78;4888205;28;97157;-49
2023/06/10 03:42:55;;;;;;;6.67;2.50;;;;;;;17.48;48.34;101579.13;4894395;28;96916;-49
2023/06/10 03:45:21;;;;;;;4.63;2.37;;;;;;;17.50;48.43;101570.25;4896390;28;98559;-49
2023/06/10 03:47:47;;;;;;;3.70;2.27;;;;;;;17.52;48.49;101574.06;4888863;28;97604;-49
2023/06/10 03:50:13;;;;;;;3.63;2.73;;;;;;;17.57;48.47;101567.69;4891769;28;97356;-49
2023/06/10 03:52:39;;;;;;;3.20;2.57;;;;;;;17.56;48.64;101566.16;4893749;28;97280;-47
2023/06/10 03:55:05;;;;;;;5.17;2.97;;;;;;;17.60;48.80;101575.00;4889293;28;97429;-49
2023/06/10 03:57:30;;;;;;;2.20;2.00;;;;;;;17.63;48.71;101587.13;4891942;28;97277;-48
2023/06/10 03:59:56;;;;;;;4.73;2.80;;;;;;;17.64;48.94;101564.34;4895047;28;96907;-49
2023/06/10 04:02:22;;;;;;;3.40;2.43;;;;;;;17.70;48.82;101567.84;4898957;28;97152;-49
2023/06/10 04:04:48;;;;;;;2.60;2.40;;;;;;;17.74;48.87;101565.50;4893679;28;96787;-49
2023/06/10 04:07:13;;;;;;;4.53;2.67;;;;;;;17.76;48.91;101568.53;4893467;28;97518;-49
2023/06/10 04:09:39;;;;;;;3.90;2.77;;;;;;;17.74;49.07;101568.28;4892257;28;97195;-49
2023/06/10 04:12:06;;;;;;;2.80;2.50;;;;;;;17.79;48.83;101564.72;4893091;28;96893;-49
2023/06/10 04:14:31;;;;;;;3.37;2.60;;;;;;;17.83;49.02;101561.63;4889062;28;97762;-50
2023/06/10 04:16:56;;;;;;;3.10;2.80;;;;;;;17.86;48.96;101563.38;4891627;28;97166;-49
2023/06/10 04:19:22;;;;;;;3.67;2.67;;;;;;;17.88;48.99;101567.16;4890729;28;97103;-49
2023/06/10 04:21:47;;;;;;;2.63;2.43;;;;;;;17.87;49.21;101565.63;4894611;28;97539;-48
2023/06/10 04:24:12;;;;;;;2.77;2.50;;;;;;;17.91;49.25;101571.66;4892005;28;108673;-49
2023/06/10 04:26:38;;;;;;;3.40;2.80;;;;;;;17.97;49.20;101575.16;4891972;28;104219;-49
2023/06/10 04:29:04;;;;;;;3.13;2.53;;;;;;;18.02;49.13;101581.94;4891019;28;97260;-48
2023/06/10 04:31:29;;;;;;;4.37;3.20;;;;;;;18.03;49.52;101579.91;4891459;28;96960;-48
2023/06/10 04:33:55;;;;;;;5.73;2.57;;;;;;;18.04;49.38;101576.63;4891696;28;104089;-49
2023/06/10 04:36:20;;;;;;;3.83;2.77;;;;;;;18.09;49.38;101577.81;4892721;28;98496;-49
2023/06/10 04:38:46;;;;;;;4.83;2.83;;;;;;;18.14;49.29;101580.56;4893161;28;97394;-48
2023/06/10 04:41:12;;;;;;;3.63;2.87;;;;;;;18.21;49.20;101588.34;4893852;28;97166;-49
2023/06/10 04:43:38;;;;;;;3.87;2.80;;;;;;;18.19;49.14;101590.91;4889025;28;97113;-49
2023/06/10 04:46:04;;;;;;;4.03;3.63;;;;;;;18.17;49.25;101598.25;4889594;28;97050;-48
2023/06/10 04:48:29;;;;;;;3.77;3.10;;;;;;;18.16;49.32;101591.19;4890085;28;96729;-49
2023/06/10 04:50:56;;;;;;;6.10;2.33;;;;;;;18.18;49.32;101594.19;4891377;28;97291;-48
2023/06/10 04:53:21;;;;;;;10.20;2.87;;;;;;;18.15;49.37;101603.59;4892955;28;98061;-49
2023/06/10 04:55:48;;;;;;;4.13;3.00;;;;;;;18.22;49.16;101606.56;4890247;28;97211;-48
2023/06/10 04:58:13;;;;;;;3.37;2.87;;;;;;;18.23;49.54;101594.16;4890810;28;97824;-49
2023/06/10 05:00:38;;;;;;;5.00;2.80;;;;;;;18.17;49.35;101592.69;4890968;28;98900;-49
2023/06/10 05:03:04;;;;;;;3.70;3.40;;;;;;;18.11;49.48;101589.22;4891550;28;100896;-49
2023/06/10 05:05:29;;;;;;;3.83;3.43;;;;;;;17.99;49.64;101591.34;4892936;28;105352;-49
2023/06/10 05:07:54;;;;;;;3.60;3.30;;;;;;;17.88;49.93;101591.47;4891351;28;97391;-48
2023/06/10 05:10:20;;;;;;;4.63;3.07;;;;;;;17.91;49.81;101588.38;4891008;28;98225;-49
2023/06/10 05:12:45;;;;;;;3.27;2.83;;;;;;;18.01;49.80;101591.59;4888894;28;97232;-49
2023/06/10 05:15:11;;;;;;;5.13;3.20;;;;;;;18.02;49.86;101592.34;4891032;28;102339;-49
2023/06/10 05:17:36;;;;;;;4.57;2.93;;;;;;;18.04;49.92;101587.00;4893612;28;97329;-49
2023/06/10 05:20:02;;;;;;;4.70;3.47;;;;;;;18.03;49.92;101597.38;4890768;28;97424;-49
2023/06/10 05:22:28;;;;;;;5.80;3.60;;;;;;;18.02;49.92;101595.13;4892861;28;97616;-49
2023/06/10 05:24:53;;;;;;;3.43;3.07;;;;;;;18.04;49.91;101587.00;4892064;28;97718;-48
2023/06/10 05:27:19;;;;;;;3.90;3.60;;;;;;;18.05;49.94;101591.28;4894231;28;96733;-49
2023/06/10 05:29:45;;;;;;;10.77;3.60;;;;;;;18.11;49.90;101595.53;4891963;28;96936;-48
2023/06/10 05:32:10;;;;;;;5.37;3.50;;;;;;;18.14;49.84;101594.50;4891248;28;97567;-48
2023/06/10 05:34:36;;;;;;;8.43;3.60;;;;;;;18.13;49.82;101595.03;4891507;28;97889;-49
2023/06/10 05:37:01;;;;;;;5.33;3.30;;;;;;;18.20;50.00;101600.75;4894005;28;97164;-48
2023/06/10 05:39:27;;;;;;;3.43;3.13;;;;;;;18.23;49.82;101605.28;4893222;28;97151;-49
2023/06/10 05:41:52;;;;;;;3.40;3.10;;;;;;;18.25;50.06;101597.16;4887535;28;97431;-49
2023/06/10 05:44:17;;;;;;;2.73;2.53;;;;;;;18.28;49.95;101604.47;4892354;28;97087;-49
2023/06/10 05:46:43;;;;;;;4.73;3.47;;;;;;;18.21;49.93;101601.50;4890378;28;97124;-48
2023/06/10 05:49:08;;;;;;;3.07;2.77;;;;;;;18.21;50.13;101596.69;4891071;28;96756;-49
2023/06/10 05:51:33;;;;;;;4.20;3.07;;;;;;;18.32;50.00;101607.72;4892823;28;97135;-49
2023/06/10 05:53:59;;;;;;;4.17;2.67;;;;;;;18.42;49.94;101602.53;4890891;28;108911;-49
2023/06/10 05:56:25;;;;;;;6.30;3.33;;;;;;;18.51;49.87;101593.84;4891780;28;97356;-49
2023/06/10 05:58:51;;;;;;;5.30;3.27;;;;;;;18.57;49.89;101592.50;4891298;28;97072;-49
2023/06/10 06:01:16;;;;;;;3.57;3.27;;;;;;;18.56;49.90;101590.25;4893980;28;97407;-49
2023/06/10 06:03:42;;;;;;;4.60;2.93;;;;;;;18.54;50.01;101590.03;4892684;28;96748;-48
2023/06/10 06:06:07;;;;;;;5.07;3.13;;;;;;;18.48;50.03;101584.50;4897926;28;97289;-49
2023/06/10 06:08:32;;;;;;;2.97;2.77;;;;;;;18.48;50.00;101584.50;4892120;28;96778;-48
2023/06/10 06:10:58;;;;;;;3.60;2.80;;;;;;;18.58;50.16;101587.69;4887932;28;103646;-49
2023/06/10 06:13:24;;;;;;;4.53;2.97;;;;;;;18.70;49.99;101589.81;4891199;28;97291;-48
2023/06/10 06:15:50;;;;;;;2.60;2.37;;;;;;;18.84;50.01;101587.09;4889912;28;96947;-49
2023/06/10 06:18:16;;;;;;;3.20;3.00;;;;;;;18.93;49.71;101595.09;4890223;28;96935;-49
2023/06/10 06:20:41;;;;;;;4.30;2.90;;;;;;;18.93;49.76;101586.72;4890210;28;97003;-49
2023/06/10 06:23:09;;;;;;;2.73;2.50;;;;;;;18.96;49.58;101586.41;4891871;28;97285;-49
2023/06/10 06:25:35;;;;;;;3.20;2.90;;;;;;;19.05;49.60;101588.81;4890922;28;96796;-48
2023/06/10 06:28:01;;;;;;;6.43;3.00;;;;;;;19.10;49.63;101593.59;4892663;28;97376;-48
2023/06/10 06:30:26;;;;;;;4.33;3.30;;;;;;;19.21;49.65;101593.41;4890433;28;97329;-47
2023/06/10 06:32:51;;;;;;;3.37;3.10;;;;;;;19.22;49.53;101583.75;4891539;28;106085;-49
2023/06/10 06:35:17;;;;;;;5.73;3.60;;;;;;;19.17;49.40;101584.59;4889394;28;103386;-48
2023/06/10 06:37:42;;;;;;;5.30;2.97;;;;;;;19.20;49.46;101588.34;4888988;28;96767;-49
2023/06/10 06:40:08;;;;;;;4.20;3.20;;;;;;;19.24;49.61;101588.81;4889806;28;112447;-48
2023/06/10 06:42:33;;;;;;;4.17;3.00;;;;;;;19.31;49.46;101588.94;4891599;28;96750;-49
2023/06/10 06:44:59;;;;;;;3.73;3.00;;;;;;;19.36;49.58;101596.50;4890392;28;104919;-49
2023/06/10 06:47:24;;;;;;;4.10;3.50;;;;;;;19.36;49.71;101596.50;4891473;28;97588;-49
2023/06/10 06:49:50;;;;;;;5.83;2.63;;;;;;;19.43;49.41;101592.34;4889284;28;96684;-48
2023/06/10 06:52:15;;;;;;;3.83;3.30;;;;;;;19.34;49.58;101595.50;4892677;28;97775;-49
2023/06/10 06:54:41;;;;;;;5.13;3.13;;;;;;;19.32;49.68;101598.84;4892222;28;96985;-49
2023/06/10 06:57:07;;;;;;;5.33;3.20;;;;;;;19.39;49.44;101606.63;4889547;28;97183;-54
2023/06/10 06:59:33;;;;;;;4.83;2.97;;;;;;;19.39;49.47;101601.03;4890173;28;96656;-48
2023/06/10 07:01:58;;;;;;;5.30;2.73;;;;;;;19.41;49.64;101597.72;4891360;28;97989;-49
2023/06/10 07:04:24;;;;;;;5.97;3.03;;;;;;;19.46;49.29;101593.34;4889861;28;96965;-49
2023/06/10 07:06:49;;;;;;;4.67;3.20;;;;;;;19.49;49.35;101593.00;4891861;28;97078;-48
2023/06/10 07:09:15;;;;;;;4.20;2.80;;;;;;;19.58;49.33;101591.84;4889741;28;99039;-49
2023/06/10 07:11:40;;;;;;;3.13;2.90;;;;;;;19.61;49.25;101590.81;4891001;28;96863;-49
2023/06/10 07:14:06;;;;;;;2.87;2.67;;;;;;;19.68;49.25;101590.91;4891833;28;96841;-49
2023/06/10 07:16:32;;;;;;;3.50;3.20;;;;;;;19.73;49.20;101594.91;4894738;28;96791;-49
2023/06/10 07:18:57;;;;;;;4.30;2.97;;;;;;;19.87;49.12;101596.44;4892110;28;97260;-46
2023/06/10 07:21:23;;;;;;;4.93;3.73;;;;;;;19.88;49.31;101595.91;4893323;28;97286;-48
2023/06/10 07:23:48;;;;;;;3.53;2.83;;;;;;;19.89;49.18;101599.47;4890746;28;97183;-48
2023/06/10 07:26:14;;;;;;;2.70;2.50;;;;;;;19.92;49.21;101603.97;4894308;28;97269;-48
2023/06/10 07:28:41;;;;;;;5.40;3.10;;;;;;;19.98;49.29;101593.47;4892195;28;97407;-49
2023/06/10 07:31:07;;;;;;;5.20;4.03;;;;;;;20.07;49.18;101598.63;4888649;28;97183;-49
2023/06/10 07:33:32;;;;;;;3.67;3.00;;;;;;;20.11;49.04;101601.84;4888789;28;96754;-47
2023/06/10 07:35:58;;;;;;;3.47;3.17;;;;;;;20.15;49.23;101597.44;4893288;28;97457;-48
2023/06/10 07:38:24;;;;;;;3.10;2.90;;;;;;;20.27;48.96;101589.63;4897940;28;97330;-49
2023/06/10 07:40:50;;;;;;;2.93;2.60;;;;;;;20.41;48.89;101598.75;4892482;28;96987;-48
2023/06/10 07:43:15;;;;;;;4.37;2.97;;;;;;;20.53;48.72;101589.59;4890305;28;97305;-49
2023/06/10 07:45:41;;;;;;;3.23;2.93;;;;;;;20.53;48.44;101591.66;4888872;28;96918;-49
2023/06/10 07:48:07;;;;;;;4.93;3.00;;;;;;;20.66;48.54;101588.84;4890278;28;97568;-48
2023/06/10 07:50:32;;;;;;;4.07;2.90;;;;;;;20.81;48.36;101577.84;4890314;28;97488;-49
2023/06/10 07:52:57;;;;;;;4.53;3.13;;;;;;;20.92;48.16;101586.00;4889756;28;96948;-48
2023/06/10 07:55:23;;;;;;;5.30;3.00;;;;;;;21.04;47.92;101592.09;4889846;28;102326;-49
2023/06/10 07:57:49;;;;;;;3.50;3.13;;;;;;;21.15;47.80;101587.03;4888440;28;98520;-50
2023/06/10 08:00:14;;;;;;;5.30;3.20;;;;;;;21.14;47.80;101584.78;4895862;28;100708;-47
2023/06/10 08:02:40;;;;;;;5.77;3.00;;;;;;;21.25;48.01;101590.13;4883365;28;97679;-49
2023/06/10 08:05:05;;;;;;;7.37;3.17;;;;;;;21.39;47.56;101588.75;4890093;28;96894;-49
2023/06/10 08:07:31;;;;;;;5.77;3.27;;;;;;;21.48;47.36;101586.22;4890974;28;97429;-48
2023/06/10 08:09:57;;;;;;;2.93;2.73;;;;;;;21.54;47.43;101608.50;4888841;28;97653;-50
2023/06/10 08:12:22;;;;;;;6.03;2.77;;;;;;;21.63;47.23;101594.78;4889345;28;96711;-50
2023/06/10 08:14:47;;;;;;;3.40;2.83;;;;;;;21.70;47.23;101590.53;4891288;28;97300;-49
2023/06/10 08:17:13;;;;;;;6.17;3.37;;;;;;;21.76;47.14;101593.19;4891438;28;96772;-50
2023/06/10 08:19:38;;;;;;;3.00;2.50;;;;;;;21.79;47.07;101590.03;4888016;28;97336;-48
2023/06/10 08:22:04;;;;;;;2.97;2.77;;;;;;;21.86;46.93;101592.19;4891790;28;104768;-50
2023/06/10 08:24:29;;;;;;;3.57;3.27;;;;;;;21.92;46.87;101590.00;4889201;28;97440;-49
2023/06/10 08:26:56;;;;;;;3.70;3.20;;;;;;;21.97;47.01;101586.28;4887455;28;110617;-53
2023/06/10 08:29:21;;;;;;;3.40;3.10;;;;;;;22.10;46.91;101585.44;4889472;28;97359;-50
2023/06/10 08:31:46;;;;;;;7.30;2.97;;;;;;;22.20;46.64;101578.78;4888461;28;97547;-48
2023/06/10 08:34:12;;;;;;;3.20;2.80;;;;;;;22.27;46.53;101589.28;4887640;28;98750;-49
2023/06/10 08:36:37;;;;;;;3.07;2.77;;;;;;;22.33;46.26;101583.50;4890380;28;97532;-49
2023/06/10 08:39:03;;;;;;;3.47;2.90;;;;;;;22.46;46.20;101585.44;4891051;28;97483;-49
2023/06/10 08:41:30;;;;;;;6.67;3.07;;;;;;;22.64;46.17;101582.41;4890248;28;97492;-50
2023/06/10 08:44:22;;;;;;;3.13;2.70;;;;;;;22.82;45.71;101580.59;4891680;28;97420;-50
2023/06/10 08:46:48;;;;;;;3.00;2.40;;;;;;;22.94;45.47;101579.69;4894473;28;97352;-49
2023/06/10 08:49:18;;;;;;;2.93;2.70;;;;;;;23.02;45.45;101583.25;4893111;28;97587;-50
2023/06/10 08:51:44;;;;;;;2.57;2.37;;;;;;;23.13;45.38;101576.53;4895593;28;97330;-49
2023/06/10 08:54:21;;;;;;;2.40;2.20;;;;;;;23.29;44.86;101580.13;4892730;28;97204;-49
2023/06/10 08:56:50;;;;;;;2.63;2.43;;;;;;;23.43;45.00;101573.84;4892337;28;96873;-50
2023/06/10 08:59:16;;;;;;;3.77;3.07;;;;;;;23.53;44.66;101571.97;4893043;28;97324;-49
2023/06/10 09:01:43;;;;;;;4.03;3.13;;;;;;;23.73;44.40;101573.06;4891988;28;97143;-48
2023/06/10 09:04:09;;;;;;;4.37;3.23;;;;;;;23.89;44.11;101576.63;4893380;28;96909;-49
2023/06/10 09:06:35;;;;;;;3.57;2.67;;;;;;;23.92;44.15;101572.69;4893456;28;96708;-48
2023/06/10 09:09:02;;;;;;;3.50;2.70;;;;;;;24.02;43.81;101568.75;4893228;28;97016;-49
2023/06/10 09:11:27;;;;;;;5.37;3.00;;;;;;;24.18;43.82;101572.31;4892162;28;97088;-49
2023/06/10 09:13:53;;;;;;;4.90;3.10;;;;;;;24.28;43.70;101570.41;4891613;28;96960;-48
2023/06/10 09:16:18;;;;;;;5.97;2.77;;;;;;;24.39;43.25;101572.81;4889477;28;97803;-48
2023/06/10 09:18:44;;;;;;;3.83;3.43;;;;;;;24.52;43.21;101561.31;4893105;28;98887;-49
2023/06/10 09:21:09;;;;;;;2.80;2.40;;;;;;;24.68;42.83;101557.13;4890305;28;97543;-50
2023/06/10 09:23:37;;;;;;;3.70;3.40;;;;;;;24.88;42.84;101561.00;4891351;28;96605;-49
2023/06/10 09:26:05;;;;;;;3.20;3.00;;;;;;;24.99;42.56;101555.66;4888939;28;97455;-48
2023/06/10 09:28:30;;;;;;;4.43;2.90;;;;;;;25.09;42.43;101558.63;4893931;28;97216;-50
2023/06/10 09:31:07;;;;;;;3.37;3.07;;;;;;;25.20;41.62;101550.47;4889362;28;97038;-48
2023/06/10 09:33:33;;;;;;;2.77;2.37;;;;;;;25.28;41.64;101553.97;4893089;28;96862;-47
2023/06/10 09:36:01;;;;;;;3.47;2.50;;;;;;;25.47;41.57;101547.09;4890571;28;97969;-48
2023/06/10 09:38:31;;;;;;;4.17;2.77;;;;;;;25.74;41.26;101545.91;4892879;28;98471;-49
2023/06/10 09:40:57;;;;;;;2.50;2.30;;;;;;;25.99;40.89;101549.41;4889838;28;96880;-49
2023/06/10 09:43:22;;;;;;;3.27;2.53;;;;;;;26.10;40.54;101551.06;4891779;28;96768;-49
2023/06/10 09:45:49;;;;;;;2.77;2.40;;;;;;;26.31;40.32;101551.38;4891349;28;98558;-50
2023/06/10 09:48:14;;;;;;;3.00;2.70;;;;;;;26.49;39.66;101544.38;4891897;28;98248;-50
2023/06/10 09:50:44;;;;;;;2.70;2.50;;;;;;;26.56;39.50;101540.69;4890300;28;96866;-50
2023/06/10 09:53:10;;;;;;;2.90;2.70;;;;;;;26.78;39.57;101541.03;4891412;28;97216;-49
2023/06/10 09:55:40;;;;;;;2.87;2.57;;;;;;;26.97;38.76;101544.72;4892315;28;97798;-48
2023/06/10 09:58:05;;;;;;;2.70;2.33;;;;;;;27.02;39.15;101548.59;4896156;28;97015;-49
2023/06/10 10:00:34;;;;;;;2.60;2.40;;;;;;;27.10;39.01;101546.41;4890981;28;96916;-50
2023/06/10 10:02:59;;;;;;;3.30;3.00;;;;;;;27.23;38.68;101546.75;4890515;28;97481;-50
2023/06/10 10:05:25;;;;;;;2.67;2.47;;;;;;;27.34;38.75;101546.22;4890858;28;97748;-50
2023/06/10 10:07:52;;;;;;;3.17;2.87;;;;;;;27.28;38.69;101547.81;4891547;28;98502;-49
2023/06/10 10:10:19;;;;;;;2.47;2.27;;;;;;;27.36;38.45;101545.63;4893368;28;97210;-50
2023/06/10 10:12:47;;;;;;;2.30;2.10;;;;;;;27.51;38.08;101541.81;4891224;28;96901;-48
2023/06/10 10:15:17;;;;;;;4.20;3.10;;;;;;;27.59;37.44;101540.34;4889582;28;97247;-50
2023/06/10 10:18:19;;;;;;;3.50;2.90;;;;;;;27.58;36.76;101540.94;4890803;28;97116;-48
2023/06/10 10:20:52;;;;;;;4.93;2.30;;;;;;;27.71;36.46;101540.53;4858770;28;96997;-48
2023/06/10 10:23:29;;;;;;;2.53;2.33;;;;;;;27.83;36.92;101538.59;4885019;28;96963;-50
2023/06/10 10:25:55;;;;;;;4.37;2.47;;;;;;;27.96;37.42;101535.34;4891372;28;96613;-50
2023/06/10 10:28:24;;;;;;;4.00;2.47;;;;;;;27.94;37.03;101527.44;4889991;28;97360;-50
2023/06/10 10:30:52;;;;;;;4.60;3.30;;;;;;;27.95;37.00;101531.78;4892927;28;97202;-48
2023/06/10 10:33:42;;;;;;;4.80;2.97;;;;;;;27.95;35.83;101525.38;4889598;28;96756;-50
2023/06/10 10:36:08;;;;;;;2.60;2.33;;;;;;;28.00;37.17;101530.75;4890817;28;96998;-51
2023/06/10 10:38:35;;;;;;;2.60;2.40;;;;;;;28.12;37.09;101525.25;4888281;28;98489;-51
2023/06/10 10:41:01;;;;;;;2.97;2.77;;;;;;;28.36;36.86;101529.88;4890496;28;97142;-50
2023/06/10 10:43:28;;;;;;;2.40;2.20;;;;;;;28.52;36.49;101530.28;4889358;28;97411;-50
2023/06/10 10:46:01;;;;;;;2.33;2.13;;;;;;;28.64;36.01;101522.69;4890085;28;97544;-49
2023/06/10 10:48:33;;;;;;;2.97;2.30;;;;;;;28.63;36.16;101526.88;4892591;28;98440;-50
2023/06/10 10:50:58;;;;;;;3.30;2.70;;;;;;;28.73;36.08;101521.91;4891334;28;96771;-47
2023/06/10 10:53:25;;;;;;;3.50;2.50;;;;;;;28.79;36.09;101516.69;4891882;28;96743;-50
2023/06/10 10:56:05;;;;;;;4.43;2.67;;;;;;;28.85;35.58;101523.50;4890004;28;97270;-50
2023/06/10 10:58:31;;;;;;;2.83;2.63;;;;;;;29.05;36.18;101518.53;4892545;28;96898;-50
2023/06/10 11:00:57;;;;;;;2.60;2.40;;;;;;;29.28;35.98;101518.00;4893154;28;96696;-50
2023/06/10 11:03:28;;;;;;;2.73;2.50;;;;;;;29.42;35.13;101519.72;4888076;28;96780;-50
2023/06/10 11:05:57;;;;;;;2.50;2.30;;;;;;;29.48;35.24;101522.25;4888380;28;97556;-49
2023/06/10 11:08:43;;;;;;;2.63;2.30;;;;;;;29.59;34.46;101522.31;4891347;28;97106;-50
2023/06/10 11:11:48;;;;;;;3.77;2.60;;;;;;;29.74;34.75;101523.25;4892144;28;97497;-49
2023/06/10 11:14:28;;;;;;;6.63;2.60;;;;;;;29.89;34.75;101523.63;4887638;28;96731;-50
2023/06/10 11:16:57;;;;;;;2.83;2.63;;;;;;;29.89;34.68;101520.78;4889731;28;97326;-49
2023/06/10 11:19:36;;;;;;;3.50;3.17;;;;;;;29.94;34.42;101516.13;4886887;28;96867;-50
2023/06/10 11:22:03;;;;;;;4.10;2.30;;;;;;;29.97;35.12;101507.13;4891343;28;97049;-49
2023/06/10 11:24:30;;;;;;;2.80;2.30;;;;;;;30.12;35.12;101508.81;4890612;28;97032;-50